createdAt,value
2017-02-03T00:00:05.478Z,983.48
2017-02-03T00:01:05.507Z,983.47
2017-02-03T00:02:05.535Z,983.49
2017-02-03T00:03:05.560Z,983.48
2017-02-03T00:04:05.591Z,983.43
2017-02-03T00:05:05.618Z,983.48
2017-02-03T00:06:05.648Z,983.44
2017-02-03T00:07:05.672Z,983.43
2017-02-03T00:08:05.701Z,983.42
2017-02-03T00:09:05.730Z,983.48
2017-02-03T00:10:05.759Z,983.51
2017-02-03T00:11:05.782Z,983.49
2017-02-03T00:12:05.809Z,983.49
2017-02-03T00:13:05.840Z,983.51
2017-02-03T00:14:05.868Z,983.53
2017-02-03T00:15:06.141Z,983.53
2017-02-03T00:16:05.923Z,983.54
2017-02-03T00:17:05.946Z,983.52
2017-02-03T00:18:05.976Z,983.56
2017-02-03T00:19:06.004Z,983.61
2017-02-03T00:20:06.286Z,983.57
2017-02-03T00:21:06.058Z,983.57
2017-02-03T00:22:06.084Z,983.54
2017-02-03T00:23:06.115Z,983.62
2017-02-03T00:24:06.144Z,983.63
2017-02-03T00:25:06.417Z,983.58
2017-02-03T00:26:06.198Z,983.61
2017-02-03T00:27:06.221Z,983.58
2017-02-03T00:28:06.255Z,983.62
2017-02-03T00:29:06.281Z,983.62
2017-02-03T00:30:06.309Z,983.65
2017-02-03T00:31:06.332Z,983.58
2017-02-03T00:32:06.361Z,983.61
2017-02-03T00:33:06.390Z,983.65
2017-02-03T00:34:06.419Z,983.61
2017-02-03T00:35:06.444Z,983.62
2017-02-03T00:36:06.471Z,983.62
2017-02-03T00:37:06.503Z,983.63
2017-02-03T00:38:06.531Z,983.61
2017-02-03T00:39:06.555Z,983.61
2017-02-03T00:40:06.583Z,983.53
2017-02-03T00:41:06.613Z,983.55
2017-02-03T00:42:06.637Z,983.53
2017-02-03T00:43:06.665Z,983.57
2017-02-03T00:44:06.693Z,983.55
2017-02-03T00:45:06.723Z,983.51
2017-02-03T00:46:06.747Z,983.57
2017-02-03T00:47:06.777Z,983.62
2017-02-03T00:48:06.803Z,983.55
2017-02-03T00:49:06.830Z,983.52
2017-02-03T00:50:06.854Z,983.53
2017-02-03T00:51:06.890Z,983.59
2017-02-03T00:52:06.917Z,983.53
2017-02-03T00:53:06.941Z,983.52
2017-02-03T00:54:06.969Z,983.53
2017-02-03T00:55:06.998Z,983.53
2017-02-03T00:56:07.022Z,983.5
2017-02-03T00:57:07.051Z,983.51
2017-02-03T00:58:07.079Z,983.5
2017-02-03T00:59:07.105Z,983.56
2017-02-03T01:00:07.134Z,983.49
2017-02-03T01:01:07.163Z,983.51
2017-02-03T01:02:07.188Z,983.51
2017-02-03T01:03:07.216Z,983.51
2017-02-03T01:04:07.244Z,983.51
2017-02-03T01:05:07.269Z,983.5
2017-02-03T01:06:07.299Z,983.47
2017-02-03T01:07:07.331Z,983.52
2017-02-03T01:08:07.348Z,983.53
2017-02-03T01:09:07.380Z,983.5
2017-02-03T01:10:07.409Z,983.49
2017-02-03T01:11:07.438Z,983.54
2017-02-03T01:12:07.461Z,983.51
2017-02-03T01:13:07.491Z,983.48
2017-02-03T01:14:07.518Z,983.53
2017-02-03T01:15:07.544Z,983.46
2017-02-03T01:16:07.574Z,983.53
2017-02-03T01:17:07.601Z,983.51
2017-02-03T01:18:07.633Z,983.49
2017-02-03T01:19:07.657Z,983.46
2017-02-03T01:20:07.685Z,983.48
2017-02-03T01:21:07.980Z,983.5
2017-02-03T01:22:07.737Z,983.51
2017-02-03T01:23:07.768Z,983.56
2017-02-03T01:24:07.795Z,983.52
2017-02-03T01:25:07.815Z,983.54
2017-02-03T01:26:08.101Z,983.48
2017-02-03T01:27:07.879Z,983.47
2017-02-03T01:28:07.902Z,983.51
2017-02-03T01:29:07.932Z,983.46
2017-02-03T01:30:07.960Z,983.51
2017-02-03T01:31:08.234Z,983.47
2017-02-03T01:32:08.013Z,983.47
2017-02-03T01:33:08.043Z,983.43
2017-02-03T01:34:08.066Z,983.45
2017-02-03T01:35:08.104Z,983.4
2017-02-03T01:36:08.375Z,983.39
2017-02-03T01:37:08.148Z,983.45
2017-02-03T01:38:08.178Z,983.41
2017-02-03T01:39:08.208Z,983.39
2017-02-03T01:40:08.235Z,983.38
2017-02-03T01:41:08.260Z,983.44
2017-02-03T01:42:08.290Z,983.4
2017-02-03T01:43:08.318Z,983.44
2017-02-03T01:44:08.343Z,983.38
2017-02-03T01:45:08.371Z,983.37
2017-02-03T01:46:08.400Z,983.36
2017-02-03T01:47:08.425Z,983.35
2017-02-03T01:48:08.452Z,983.35
2017-02-03T01:49:08.479Z,983.32
2017-02-03T01:50:08.507Z,983.29
2017-02-03T01:51:08.532Z,983.32
2017-02-03T01:52:08.563Z,983.28
2017-02-03T01:53:08.584Z,983.3
2017-02-03T01:54:08.619Z,983.27
2017-02-03T01:55:08.646Z,983.29
2017-02-03T01:56:08.672Z,983.26
2017-02-03T01:57:08.701Z,983.3
2017-02-03T01:58:08.729Z,983.24
2017-02-03T01:59:08.755Z,983.23
2017-02-03T02:00:08.783Z,983.17
2017-02-03T02:01:08.811Z,983.2
2017-02-03T02:02:08.840Z,983.14
2017-02-03T02:03:08.861Z,983.18
2017-02-03T02:04:08.890Z,983.13
2017-02-03T02:05:08.924Z,983.11
2017-02-03T02:06:08.948Z,983.06
2017-02-03T02:07:08.976Z,983.07
2017-02-03T02:08:09.001Z,983.06
2017-02-03T02:09:09.030Z,983.05
2017-02-03T02:10:09.058Z,983.08
2017-02-03T02:11:09.087Z,983.04
2017-02-03T02:12:09.362Z,983.04
2017-02-03T02:13:09.137Z,983.05
2017-02-03T02:14:09.165Z,983.03
2017-02-03T02:15:09.194Z,983.03
2017-02-03T02:16:09.223Z,983.02
2017-02-03T02:17:09.499Z,983.04
2017-02-03T02:18:09.275Z,983.02
2017-02-03T02:19:09.305Z,983.02
2017-02-03T02:20:09.333Z,982.98
2017-02-03T02:21:09.358Z,982.98
2017-02-03T02:22:09.637Z,982.99
2017-02-03T02:23:09.415Z,982.97
2017-02-03T02:24:09.440Z,982.97
2017-02-03T02:25:09.469Z,982.99
2017-02-03T02:26:09.498Z,982.97
2017-02-03T02:27:09.777Z,982.97
2017-02-03T02:28:09.547Z,983.05
2017-02-03T02:29:09.575Z,983.03
2017-02-03T02:30:09.604Z,982.96
2017-02-03T02:31:09.631Z,982.97
2017-02-03T02:32:09.658Z,982.96
2017-02-03T02:33:09.687Z,983
2017-02-03T02:34:09.715Z,982.95
2017-02-03T02:35:09.744Z,982.91
2017-02-03T02:36:09.768Z,982.93
2017-02-03T02:37:09.795Z,982.94
2017-02-03T02:38:09.827Z,982.88
2017-02-03T02:39:09.851Z,982.92
2017-02-03T02:40:09.878Z,982.96
2017-02-03T02:41:09.905Z,982.96
2017-02-03T02:42:09.932Z,982.94
2017-02-03T02:43:10.279Z,982.91
2017-02-03T02:44:09.985Z,982.92
2017-02-03T02:45:10.017Z,982.89
2017-02-03T02:46:10.070Z,982.88
2017-02-03T02:47:10.066Z,982.94
2017-02-03T02:48:10.097Z,982.89
2017-02-03T02:49:10.125Z,982.88
2017-02-03T02:50:10.151Z,982.89
2017-02-03T02:51:10.179Z,982.91
2017-02-03T02:52:10.208Z,982.9
2017-02-03T02:53:10.231Z,982.82
2017-02-03T02:54:10.260Z,982.84
2017-02-03T02:55:10.289Z,982.84
2017-02-03T02:56:10.314Z,982.85
2017-02-03T02:57:10.342Z,982.81
2017-02-03T02:58:10.619Z,982.87
2017-02-03T02:59:10.396Z,982.81
2017-02-03T03:00:10.426Z,982.8
2017-02-03T03:01:10.451Z,982.8
2017-02-03T03:02:10.475Z,982.82
2017-02-03T03:03:10.759Z,982.86
2017-02-03T03:04:10.536Z,982.8
2017-02-03T03:05:10.562Z,982.86
2017-02-03T03:06:10.590Z,982.86
2017-02-03T03:07:10.613Z,982.83
2017-02-03T03:08:10.895Z,982.82
2017-02-03T03:09:10.674Z,982.84
2017-02-03T03:10:10.697Z,982.84
2017-02-03T03:11:10.747Z,982.82
2017-02-03T03:12:10.754Z,982.83
2017-02-03T03:13:11.030Z,982.87
2017-02-03T03:14:10.808Z,982.84
2017-02-03T03:15:10.835Z,982.81
2017-02-03T03:16:10.861Z,982.85
2017-02-03T03:17:10.889Z,982.84
2017-02-03T03:18:11.162Z,982.83
2017-02-03T03:19:10.939Z,982.81
2017-02-03T03:20:10.972Z,982.82
2017-02-03T03:21:10.996Z,982.84
2017-02-03T03:22:11.027Z,982.84
2017-02-03T03:23:11.054Z,982.82
2017-02-03T03:24:11.075Z,982.78
2017-02-03T03:25:11.108Z,982.8
2017-02-03T03:26:11.136Z,982.84
2017-02-03T03:27:11.161Z,982.81
2017-02-03T03:28:11.190Z,982.82
2017-02-03T03:29:11.216Z,982.79
2017-02-03T03:30:11.243Z,982.76
2017-02-03T03:31:11.273Z,982.74
2017-02-03T03:32:11.301Z,982.72
2017-02-03T03:33:11.326Z,982.77
2017-02-03T03:34:11.355Z,982.77
2017-02-03T03:35:11.383Z,982.76
2017-02-03T03:36:11.408Z,982.76
2017-02-03T03:37:11.438Z,982.72
2017-02-03T03:38:11.467Z,982.75
2017-02-03T03:39:11.487Z,982.69
2017-02-03T03:40:11.519Z,982.75
2017-02-03T03:41:11.545Z,982.73
2017-02-03T03:42:11.573Z,982.73
2017-02-03T03:43:11.602Z,982.71
2017-02-03T03:44:11.632Z,982.77
2017-02-03T03:45:11.661Z,982.75
2017-02-03T03:46:11.684Z,982.75
2017-02-03T03:47:11.710Z,982.76
2017-02-03T03:48:11.738Z,982.79
2017-02-03T03:49:11.763Z,982.8
2017-02-03T03:50:11.792Z,982.81
2017-02-03T03:51:11.821Z,982.82
2017-02-03T03:52:11.846Z,982.84
2017-02-03T03:53:11.874Z,982.81
2017-02-03T03:54:11.905Z,982.84
2017-02-03T03:55:11.932Z,982.85
2017-02-03T03:56:11.959Z,982.82
2017-02-03T03:57:11.986Z,982.86
2017-02-03T03:58:12.009Z,982.9
2017-02-03T03:59:12.040Z,982.9
2017-02-03T04:00:12.068Z,982.89
2017-02-03T04:01:12.093Z,982.9
2017-02-03T04:02:12.121Z,982.93
2017-02-03T04:03:12.147Z,982.93
2017-02-03T04:04:12.427Z,982.97
2017-02-03T04:05:12.205Z,982.97
2017-02-03T04:06:12.230Z,982.96
2017-02-03T04:07:12.258Z,983.02
2017-02-03T04:08:12.288Z,982.99
2017-02-03T04:09:12.316Z,982.98
2017-02-03T04:10:12.335Z,983
2017-02-03T04:11:12.366Z,982.95
2017-02-03T04:12:12.395Z,982.92
2017-02-03T04:13:12.423Z,982.94
2017-02-03T04:14:12.447Z,982.95
2017-02-03T04:15:12.477Z,982.96
2017-02-03T04:16:12.505Z,982.93
2017-02-03T04:17:12.530Z,982.96
2017-02-03T04:18:12.560Z,983.01
2017-02-03T04:19:12.583Z,982.99
2017-02-03T04:20:12.613Z,982.95
2017-02-03T04:21:12.641Z,982.94
2017-02-03T04:22:12.667Z,982.95
2017-02-03T04:23:12.696Z,982.95
2017-02-03T04:24:12.725Z,982.91
2017-02-03T04:25:12.746Z,982.92
2017-02-03T04:26:12.778Z,982.9
2017-02-03T04:27:12.806Z,982.92
2017-02-03T04:28:12.832Z,982.91
2017-02-03T04:29:12.863Z,982.86
2017-02-03T04:30:12.893Z,982.92
2017-02-03T04:31:12.913Z,982.91
2017-02-03T04:32:12.943Z,982.92
2017-02-03T04:33:12.963Z,982.94
2017-02-03T04:34:12.996Z,982.99
2017-02-03T04:35:13.024Z,982.93
2017-02-03T04:36:13.046Z,982.97
2017-02-03T04:37:13.079Z,982.93
2017-02-03T04:38:13.108Z,982.97
2017-02-03T04:39:13.133Z,982.94
2017-02-03T04:40:13.406Z,982.94
2017-02-03T04:41:13.186Z,982.97
2017-02-03T04:42:13.215Z,982.97
2017-02-03T04:43:13.240Z,983
2017-02-03T04:44:13.268Z,982.96
2017-02-03T04:45:13.549Z,982.95
2017-02-03T04:46:13.322Z,982.98
2017-02-03T04:47:13.351Z,982.97
2017-02-03T04:48:13.375Z,982.95
2017-02-03T04:49:13.407Z,982.96
2017-02-03T04:50:13.430Z,983.03
2017-02-03T04:51:13.458Z,982.99
2017-02-03T04:52:13.486Z,983.02
2017-02-03T04:53:13.515Z,983.05
2017-02-03T04:54:13.539Z,983.04
2017-02-03T04:55:13.569Z,983.02
2017-02-03T04:56:13.593Z,983.02
2017-02-03T04:57:13.623Z,983.08
2017-02-03T04:58:13.646Z,983.1
2017-02-03T04:59:13.673Z,983.09
2017-02-03T05:00:13.705Z,983.09
2017-02-03T05:01:13.730Z,983.16
2017-02-03T05:02:13.759Z,983.15
2017-02-03T05:03:13.789Z,983.16
2017-02-03T05:04:13.812Z,983.18
2017-02-03T05:05:13.844Z,983.18
2017-02-03T05:06:13.869Z,983.2
2017-02-03T05:07:13.896Z,983.2
2017-02-03T05:08:13.924Z,983.19
2017-02-03T05:09:13.948Z,983.2
2017-02-03T05:10:13.975Z,983.22
2017-02-03T05:11:14.258Z,983.2
2017-02-03T05:12:14.030Z,983.2
2017-02-03T05:13:14.063Z,983.24
2017-02-03T05:14:14.085Z,983.22
2017-02-03T05:15:14.114Z,983.21
2017-02-03T05:16:14.393Z,983.27
2017-02-03T05:17:14.166Z,983.27
2017-02-03T05:18:14.195Z,983.33
2017-02-03T05:19:14.228Z,983.38
2017-02-03T05:20:14.249Z,983.34
2017-02-03T05:21:14.529Z,983.38
2017-02-03T05:22:14.303Z,983.41
2017-02-03T05:23:14.331Z,983.39
2017-02-03T05:24:14.357Z,983.43
2017-02-03T05:25:14.383Z,983.38
2017-02-03T05:26:14.414Z,983.43
2017-02-03T05:27:14.439Z,983.46
2017-02-03T05:28:14.467Z,983.45
2017-02-03T05:29:14.492Z,983.47
2017-02-03T05:30:14.521Z,983.5
2017-02-03T05:31:14.545Z,983.52
2017-02-03T05:32:14.574Z,983.51
2017-02-03T05:33:14.603Z,983.49
2017-02-03T05:34:14.631Z,983.52
2017-02-03T05:35:14.656Z,983.5
2017-02-03T05:36:14.684Z,983.54
2017-02-03T05:37:14.710Z,983.57
2017-02-03T05:38:14.739Z,983.56
2017-02-03T05:39:14.767Z,983.59
2017-02-03T05:40:14.792Z,983.63
2017-02-03T05:41:14.822Z,983.64
2017-02-03T05:42:14.846Z,983.63
2017-02-03T05:43:14.871Z,983.67
2017-02-03T05:44:14.904Z,983.68
2017-02-03T05:45:14.928Z,983.68
2017-02-03T05:46:14.958Z,983.69
2017-02-03T05:47:14.980Z,983.71
2017-02-03T05:48:15.010Z,983.67
2017-02-03T05:49:15.036Z,983.65
2017-02-03T05:50:15.065Z,983.67
2017-02-03T05:51:15.093Z,983.63
2017-02-03T05:52:15.122Z,983.66
2017-02-03T05:53:15.147Z,983.64
2017-02-03T05:54:15.176Z,983.66
2017-02-03T05:55:15.201Z,983.65
2017-02-03T05:56:15.230Z,983.74
2017-02-03T05:57:15.259Z,983.73
2017-02-03T05:58:15.283Z,983.75
2017-02-03T05:59:15.311Z,983.78
2017-02-03T06:00:15.339Z,983.77
2017-02-03T06:01:15.365Z,983.81
2017-02-03T06:02:15.390Z,983.82
2017-02-03T06:03:15.417Z,983.85
2017-02-03T06:04:15.446Z,983.86
2017-02-03T06:05:15.475Z,983.84
2017-02-03T06:06:15.501Z,983.88
2017-02-03T06:07:15.529Z,983.86
2017-02-03T06:08:15.554Z,983.85
2017-02-03T06:09:15.584Z,983.94
2017-02-03T06:10:15.611Z,983.85
2017-02-03T06:11:15.638Z,983.85
2017-02-03T06:12:15.665Z,983.85
2017-02-03T06:13:15.694Z,983.86
2017-02-03T06:14:15.718Z,983.89
2017-02-03T06:15:15.747Z,983.87
2017-02-03T06:16:15.776Z,983.9
2017-02-03T06:17:15.796Z,983.88
2017-02-03T06:18:15.830Z,983.93
2017-02-03T06:19:15.858Z,983.91
2017-02-03T06:20:15.887Z,983.96
2017-02-03T06:21:15.910Z,983.94
2017-02-03T06:22:16.193Z,983.95
2017-02-03T06:23:15.965Z,983.95
2017-02-03T06:24:15.995Z,984
2017-02-03T06:25:16.026Z,983.98
2017-02-03T06:26:16.049Z,983.96
2017-02-03T06:27:16.325Z,984.03
2017-02-03T06:28:16.106Z,983.98
2017-02-03T06:29:16.129Z,983.99
2017-02-03T06:30:16.155Z,984.04
2017-02-03T06:31:16.188Z,984.02
2017-02-03T06:32:16.465Z,984.06
2017-02-03T06:33:16.241Z,984.05
2017-02-03T06:34:16.270Z,984.03
2017-02-03T06:35:16.294Z,984.05
2017-02-03T06:36:16.324Z,984.03
2017-02-03T06:37:16.352Z,984.02
2017-02-03T06:38:16.378Z,984
2017-02-03T06:39:16.409Z,983.99
2017-02-03T06:40:16.439Z,983.99
2017-02-03T06:41:16.456Z,984.07
2017-02-03T06:42:16.483Z,984.06
2017-02-03T06:43:16.517Z,984.05
2017-02-03T06:44:16.547Z,984.07
2017-02-03T06:45:16.569Z,984.07
2017-02-03T06:46:16.599Z,984.08
2017-02-03T06:47:16.627Z,984.09
2017-02-03T06:48:16.652Z,984.06
2017-02-03T06:49:16.682Z,984.08
2017-02-03T06:50:16.711Z,984.07
2017-02-03T06:51:16.770Z,984.09
2017-02-03T06:52:16.760Z,984.07
2017-02-03T06:53:16.793Z,984.11
2017-02-03T06:54:16.822Z,984.1
2017-02-03T06:55:16.846Z,984.16
2017-02-03T06:56:16.874Z,984.15
2017-02-03T06:57:16.901Z,984.18
2017-02-03T06:58:16.929Z,984.15
2017-02-03T06:59:16.958Z,984.2
2017-02-03T07:00:16.986Z,984.1
2017-02-03T07:01:17.019Z,984.17
2017-02-03T07:02:17.046Z,984.19
2017-02-03T07:03:17.074Z,984.15
2017-02-03T07:04:17.101Z,984.18
2017-02-03T07:05:17.126Z,984.16
2017-02-03T07:06:17.153Z,984.18
2017-02-03T07:07:17.179Z,984.14
2017-02-03T07:08:17.214Z,984.12
2017-02-03T07:09:17.237Z,984.12
2017-02-03T07:10:17.261Z,984.18
2017-02-03T07:11:17.285Z,984.18
2017-02-03T07:12:17.315Z,984.17
2017-02-03T07:13:17.343Z,984.2
2017-02-03T07:14:17.373Z,984.19
2017-02-03T07:15:17.397Z,984.19
2017-02-03T07:16:17.424Z,984.2
2017-02-03T07:17:17.451Z,984.25
2017-02-03T07:18:17.730Z,984.23
2017-02-03T07:19:17.504Z,984.24
2017-02-03T07:20:17.537Z,984.25
2017-02-03T07:21:17.561Z,984.23
2017-02-03T07:22:17.591Z,984.24
2017-02-03T07:23:17.871Z,984.19
2017-02-03T07:24:17.648Z,984.22
2017-02-03T07:25:17.668Z,984.18
2017-02-03T07:26:17.702Z,984.19
2017-02-03T07:27:17.730Z,984.19
2017-02-03T07:28:18.006Z,984.21
2017-02-03T07:29:17.783Z,984.2
2017-02-03T07:30:17.812Z,984.23
2017-02-03T07:31:17.838Z,984.24
2017-02-03T07:32:17.866Z,984.2
2017-02-03T07:33:18.146Z,984.24
2017-02-03T07:34:17.922Z,984.26
2017-02-03T07:35:17.948Z,984.3
2017-02-03T07:36:17.978Z,984.25
2017-02-03T07:37:18.005Z,984.29
2017-02-03T07:38:18.314Z,984.3
2017-02-03T07:39:18.058Z,984.28
2017-02-03T07:40:18.089Z,984.32
2017-02-03T07:41:18.115Z,984.31
2017-02-03T07:42:18.144Z,984.33
2017-02-03T07:43:18.420Z,984.32
2017-02-03T07:44:18.198Z,984.34
2017-02-03T07:45:18.227Z,984.37
2017-02-03T07:46:18.251Z,984.36
2017-02-03T07:47:18.280Z,984.39
2017-02-03T07:48:18.309Z,984.4
2017-02-03T07:49:18.337Z,984.42
2017-02-03T07:50:18.363Z,984.43
2017-02-03T07:51:18.391Z,984.4
2017-02-03T07:52:18.419Z,984.4
2017-02-03T07:53:18.444Z,984.39
2017-02-03T07:54:18.472Z,984.35
2017-02-03T07:55:18.502Z,984.39
2017-02-03T07:56:18.530Z,984.4
2017-02-03T07:57:18.557Z,984.41
2017-02-03T07:58:18.580Z,984.44
2017-02-03T07:59:18.612Z,984.37
2017-02-03T08:00:18.642Z,984.44
2017-02-03T08:01:18.666Z,984.43
2017-02-03T08:02:18.696Z,984.49
2017-02-03T08:03:18.725Z,984.47
2017-02-03T08:04:18.749Z,984.47
2017-02-03T08:05:18.779Z,984.48
2017-02-03T08:06:18.806Z,984.48
2017-02-03T08:07:18.827Z,984.49
2017-02-03T08:08:18.858Z,984.4
2017-02-03T08:09:18.887Z,984.39
2017-02-03T08:10:18.916Z,984.35
2017-02-03T08:11:18.941Z,984.36
2017-02-03T08:12:18.969Z,984.35
2017-02-03T08:13:18.999Z,984.38
2017-02-03T08:14:19.275Z,984.37
2017-02-03T08:15:19.052Z,984.35
2017-02-03T08:16:19.080Z,984.35
2017-02-03T08:17:19.110Z,984.35
2017-02-03T08:18:19.133Z,984.35
2017-02-03T08:19:19.415Z,984.34
2017-02-03T08:20:19.193Z,984.31
2017-02-03T08:21:19.220Z,984.36
2017-02-03T08:22:19.244Z,984.37
2017-02-03T08:23:19.273Z,984.4
2017-02-03T08:24:19.306Z,984.33
2017-02-03T08:25:19.326Z,984.36
2017-02-03T08:26:19.355Z,984.39
2017-02-03T08:27:19.385Z,984.32
2017-02-03T08:28:19.409Z,984.4
2017-02-03T08:29:19.439Z,984.35
2017-02-03T08:30:19.467Z,984.37
2017-02-03T08:31:19.492Z,984.35
2017-02-03T08:32:19.520Z,984.35
2017-02-03T08:33:19.547Z,984.36
2017-02-03T08:34:19.577Z,984.34
2017-02-03T08:35:19.602Z,984.42
2017-02-03T08:36:19.632Z,984.33
2017-02-03T08:37:19.659Z,984.41
2017-02-03T08:38:19.689Z,984.41
2017-02-03T08:39:19.717Z,984.41
2017-02-03T08:40:19.741Z,984.4
2017-02-03T08:41:19.766Z,984.36
2017-02-03T08:42:19.794Z,984.37
2017-02-03T08:43:19.823Z,984.38
2017-02-03T08:44:19.853Z,984.39
2017-02-03T08:45:19.876Z,984.42
2017-02-03T08:46:19.906Z,984.36
2017-02-03T08:47:19.934Z,984.45
2017-02-03T08:48:19.989Z,984.48
2017-02-03T08:49:19.987Z,984.44
2017-02-03T08:50:20.016Z,984.48
2017-02-03T08:51:20.046Z,984.46
2017-02-03T08:52:20.070Z,984.43
2017-02-03T08:53:20.099Z,984.47
2017-02-03T08:54:20.127Z,984.46
2017-02-03T08:55:20.456Z,984.48
2017-02-03T08:56:20.181Z,984.51
2017-02-03T08:57:20.211Z,984.51
2017-02-03T08:58:20.238Z,984.44
2017-02-03T08:59:20.263Z,984.49
2017-02-03T09:00:20.591Z,984.55
2017-02-03T09:01:20.320Z,984.53
2017-02-03T09:02:20.345Z,984.59
2017-02-03T09:03:20.374Z,984.54
2017-02-03T09:04:20.402Z,984.56
2017-02-03T09:05:20.427Z,984.55
2017-02-03T09:06:20.456Z,984.58
2017-02-03T09:07:20.484Z,984.57
2017-02-03T09:08:20.514Z,984.58
2017-02-03T09:09:20.538Z,984.56
2017-02-03T09:10:20.568Z,984.56
2017-02-03T09:11:20.596Z,984.51
2017-02-03T09:12:20.621Z,984.51
2017-02-03T09:13:20.649Z,984.45
2017-02-03T09:14:20.682Z,984.42
2017-02-03T09:15:20.703Z,984.47
2017-02-03T09:16:20.732Z,984.41
2017-02-03T09:17:20.760Z,984.38
2017-02-03T09:18:20.788Z,984.43
2017-02-03T09:19:20.813Z,984.38
2017-02-03T09:20:20.843Z,984.35
2017-02-03T09:21:20.871Z,984.37
2017-02-03T09:22:20.896Z,984.36
2017-02-03T09:23:20.923Z,984.38
2017-02-03T09:24:20.955Z,984.41
2017-02-03T09:25:20.979Z,984.42
2017-02-03T09:26:21.006Z,984.42
2017-02-03T09:27:21.035Z,984.43
2017-02-03T09:28:21.064Z,984.37
2017-02-03T09:29:21.089Z,984.32
2017-02-03T09:30:21.118Z,984.34
2017-02-03T09:31:21.146Z,984.32
2017-02-03T09:32:21.171Z,984.38
2017-02-03T09:33:21.200Z,984.45
2017-02-03T09:34:21.226Z,984.48
2017-02-03T09:35:21.256Z,984.48
2017-02-03T09:36:21.281Z,984.49
2017-02-03T09:37:21.311Z,984.51
2017-02-03T09:38:21.340Z,984.55
2017-02-03T09:39:21.368Z,984.53
2017-02-03T09:40:21.393Z,984.53
2017-02-03T09:41:21.421Z,984.57
2017-02-03T09:42:21.446Z,984.56
2017-02-03T09:43:21.470Z,984.58
2017-02-03T09:44:21.503Z,984.57
2017-02-03T09:45:21.532Z,984.6
2017-02-03T09:46:21.859Z,984.59
2017-02-03T09:47:21.586Z,984.57
2017-02-03T09:48:21.618Z,984.56
2017-02-03T09:49:21.639Z,984.57
2017-02-03T09:50:21.668Z,984.59
2017-02-03T09:51:21.996Z,984.63
2017-02-03T09:52:21.725Z,984.64
2017-02-03T09:53:21.755Z,984.64
2017-02-03T09:54:21.780Z,984.7
2017-02-03T09:55:21.808Z,984.61
2017-02-03T09:56:21.835Z,984.55
2017-02-03T09:57:21.860Z,984.52
2017-02-03T09:58:21.891Z,984.58
2017-02-03T09:59:21.923Z,984.6
2017-02-03T10:00:21.946Z,984.58
2017-02-03T10:01:21.971Z,984.51
2017-02-03T10:02:22.000Z,984.53
2017-02-03T10:03:22.029Z,984.5
2017-02-03T10:04:22.053Z,984.48
2017-02-03T10:05:22.082Z,984.55
2017-02-03T10:06:22.111Z,984.49
2017-02-03T10:07:22.136Z,984.49
2017-02-03T10:08:22.160Z,984.55
2017-02-03T10:09:22.193Z,984.48
2017-02-03T10:10:22.217Z,984.42
2017-02-03T10:11:22.246Z,984.46
2017-02-03T10:12:22.276Z,984.43
2017-02-03T10:13:22.316Z,984.43
2017-02-03T10:14:22.328Z,984.39
2017-02-03T10:15:22.357Z,984.38
2017-02-03T10:16:22.381Z,984.45
2017-02-03T10:17:22.411Z,984.39
2017-02-03T10:18:22.441Z,984.41
2017-02-03T10:19:22.468Z,984.43
2017-02-03T10:20:22.493Z,984.41
2017-02-03T10:21:22.522Z,984.35
2017-02-03T10:22:22.551Z,984.36
2017-02-03T10:23:22.578Z,984.34
2017-02-03T10:24:22.604Z,984.35
2017-02-03T10:25:22.633Z,984.41
2017-02-03T10:26:22.661Z,984.42
2017-02-03T10:27:22.985Z,984.4
2017-02-03T10:28:22.712Z,984.44
2017-02-03T10:29:22.744Z,984.44
2017-02-03T10:30:22.773Z,984.49
2017-02-03T10:31:22.796Z,984.46
2017-02-03T10:32:23.129Z,984.5
2017-02-03T10:33:22.851Z,984.48
2017-02-03T10:34:22.880Z,984.47
2017-02-03T10:35:22.909Z,984.53
2017-02-03T10:36:22.935Z,984.54
2017-02-03T10:37:23.265Z,984.55
2017-02-03T10:38:22.991Z,984.56
2017-02-03T10:39:23.023Z,984.57
2017-02-03T10:40:23.049Z,984.66
2017-02-03T10:41:23.072Z,984.61
2017-02-03T10:42:23.403Z,984.62
2017-02-03T10:43:23.131Z,984.72
2017-02-03T10:44:23.160Z,984.69
2017-02-03T10:45:23.184Z,984.78
2017-02-03T10:46:23.212Z,984.68
2017-02-03T10:47:23.243Z,984.66
2017-02-03T10:48:23.267Z,984.68
2017-02-03T10:49:23.295Z,984.69
2017-02-03T10:50:23.329Z,984.68
2017-02-03T10:51:23.348Z,984.63
2017-02-03T10:52:23.378Z,984.6
2017-02-03T10:53:23.402Z,984.61
2017-02-03T10:54:23.435Z,984.61
2017-02-03T10:55:23.459Z,984.58
2017-02-03T10:56:23.493Z,984.61
2017-02-03T10:57:23.519Z,984.6
2017-02-03T10:58:23.543Z,984.55
2017-02-03T10:59:23.572Z,984.57
2017-02-03T11:00:23.596Z,984.57
2017-02-03T11:01:23.629Z,984.56
2017-02-03T11:02:23.655Z,984.52
2017-02-03T11:03:23.684Z,984.51
2017-02-03T11:04:23.706Z,984.61
2017-02-03T11:05:23.736Z,984.52
2017-02-03T11:06:23.767Z,984.6
2017-02-03T11:07:23.794Z,984.56
2017-02-03T11:08:23.819Z,984.63
2017-02-03T11:09:23.848Z,984.6
2017-02-03T11:10:23.876Z,984.58
2017-02-03T11:11:23.900Z,984.58
2017-02-03T11:12:23.930Z,984.59
2017-02-03T11:13:23.959Z,984.54
2017-02-03T11:14:23.988Z,984.58
2017-02-03T11:15:24.013Z,984.63
2017-02-03T11:16:24.042Z,984.61
2017-02-03T11:17:24.070Z,984.56
2017-02-03T11:18:24.089Z,984.61
2017-02-03T11:19:24.123Z,984.59
2017-02-03T11:20:24.154Z,984.6
2017-02-03T11:21:24.181Z,984.68
2017-02-03T11:22:24.208Z,984.64
2017-02-03T11:23:24.533Z,984.62
2017-02-03T11:24:24.264Z,984.62
2017-02-03T11:25:24.292Z,984.6
2017-02-03T11:26:24.317Z,984.55
2017-02-03T11:27:24.346Z,984.62
2017-02-03T11:28:24.370Z,984.55
2017-02-03T11:29:24.403Z,984.56
2017-02-03T11:30:24.427Z,984.45
2017-02-03T11:31:24.457Z,984.44
2017-02-03T11:32:24.486Z,984.41
2017-02-03T11:33:24.511Z,984.44
2017-02-03T11:34:24.539Z,984.37
2017-02-03T11:35:24.568Z,984.35
2017-02-03T11:36:24.597Z,984.38
2017-02-03T11:37:24.622Z,984.29
2017-02-03T11:38:24.651Z,984.32
2017-02-03T11:39:24.678Z,984.32
2017-02-03T11:40:24.708Z,984.29
2017-02-03T11:41:24.732Z,984.32
2017-02-03T11:42:24.764Z,984.32
2017-02-03T11:43:24.787Z,984.39
2017-02-03T11:44:24.815Z,984.38
2017-02-03T11:45:24.846Z,984.37
2017-02-03T11:46:24.885Z,984.39
2017-02-03T11:47:24.902Z,984.42
2017-02-03T11:48:24.926Z,984.44
2017-02-03T11:49:25.255Z,984.43
2017-02-03T11:50:24.984Z,984.45
2017-02-03T11:51:25.013Z,984.35
2017-02-03T11:52:25.040Z,984.31
2017-02-03T11:53:25.068Z,984.33
2017-02-03T11:54:25.395Z,984.32
2017-02-03T11:55:25.124Z,984.36
2017-02-03T11:56:25.150Z,984.34
2017-02-03T11:57:25.178Z,984.34
2017-02-03T11:58:25.202Z,984.32
2017-02-03T11:59:25.532Z,984.32
2017-02-03T12:00:25.264Z,984.37
2017-02-03T12:01:25.288Z,984.37
2017-02-03T12:02:25.317Z,984.37
2017-02-03T12:03:25.343Z,984.34
2017-02-03T12:04:25.371Z,984.36
2017-02-03T12:05:25.400Z,984.3
2017-02-03T12:06:25.429Z,984.3
2017-02-03T12:07:25.454Z,984.28
2017-02-03T12:08:25.479Z,984.32
2017-02-03T12:09:25.511Z,984.3
2017-02-03T12:10:25.536Z,984.28
2017-02-03T12:11:25.564Z,984.23
2017-02-03T12:12:25.593Z,984.24
2017-02-03T12:13:25.619Z,984.15
2017-02-03T12:14:25.655Z,984.15
2017-02-03T12:15:25.678Z,984.04
2017-02-03T12:16:25.705Z,984.01
2017-02-03T12:17:25.733Z,984.05
2017-02-03T12:18:25.764Z,983.99
2017-02-03T12:19:25.786Z,983.99
2017-02-03T12:20:25.817Z,984
2017-02-03T12:21:25.841Z,984.01
2017-02-03T12:22:25.874Z,984.04
2017-02-03T12:23:25.896Z,984.03
2017-02-03T12:24:25.927Z,983.99
2017-02-03T12:25:25.956Z,984
2017-02-03T12:26:25.981Z,984.01
2017-02-03T12:27:26.008Z,984.06
2017-02-03T12:28:26.037Z,983.99
2017-02-03T12:29:26.067Z,983.98
2017-02-03T12:30:26.089Z,984.03
2017-02-03T12:31:26.118Z,984.06